Adams City, Colorado
Current Conditions -  °F | °C
As of 3:53 PM on Wednesday 26 Nov 2014 (Local Time) from KDEN Reporting Station
Few Clouds Few Clouds  
Wind Chill: -4°   Ceiling: Unl
Heat Index:   Visibility: 10mi
Dew Point: -4°   Wind: 16mph
Humidity: 67%   Direction: 90°E
Pressure: 30.18"   Gusts: NA
Location:  39.8641°N, 104.821°W
Report Text: KDEN 262253Z 09014KT 10SM FEW060 FEW150 02/M04 A3018 RMK AO2 SLP234 T00171039
Loading
Personal Weather Stations






























Interactive Weather Map New forecast layout! Learn more

10-Day Weather Forecast

Advertisements
Track Severe Weather on mobile